Time;durP1;ratioP1;P1;durP2;ratioP2;P2;SDS_P1;SDS_P2;PMS_P1;PMS_P2;Temp;Humidity;BMP_temperature;BMP_pressure;BME280_temperature;BME280_humidity;BME280_pressure;Samples;Min_cycle;Max_cycle;Signal;HPM_P1;HPM_P2
2021/09/03 00:00:48;;;;;;;7.03;6.20;;;23.30;58.40;;;;;;5069209;28;20186;-66
2021/09/03 00:03:19;;;;;;;7.03;6.30;;;23.20;58.30;;;;;;5088379;28;20332;-66
2021/09/03 00:05:55;;;;;;;7.30;6.20;;;23.20;58.30;;;;;;5070963;28;20685;-66
2021/09/03 00:08:27;;;;;;;6.40;5.80;;;23.20;58.30;;;;;;5073893;28;20223;-66
2021/09/03 00:11:04;;;;;;;7.27;6.10;;;23.20;58.30;;;;;;5062978;28;20207;-66
2021/09/03 00:13:39;;;;;;;7.90;6.47;;;23.20;58.40;;;;;;5058105;28;20196;-66
2021/09/03 00:16:13;;;;;;;6.67;5.83;;;23.20;58.40;;;;;;5078974;28;20228;-66
2021/09/03 00:18:45;;;;;;;6.50;5.70;;;23.20;58.40;;;;;;5085586;28;20801;-66
2021/09/03 00:21:17;;;;;;;6.80;6.20;;;23.20;58.40;;;;;;5075440;28;20212;-66
2021/09/03 00:23:48;;;;;;;9.10;6.27;;;23.20;58.40;;;;;;5085245;28;20193;-66
2021/09/03 00:26:19;;;;;;;7.77;6.70;;;23.20;58.40;;;;;;5060150;28;20200;-66
2021/09/03 00:28:50;;;;;;;7.03;6.33;;;23.20;58.40;;;;;;5068386;28;20203;-66
2021/09/03 00:31:22;;;;;;;7.77;6.17;;;23.20;58.40;;;;;;5076110;28;20200;-66
2021/09/03 00:33:53;;;;;;;6.70;6.10;;;23.20;58.40;;;;;;5088745;28;20193;-66
2021/09/03 00:36:24;;;;;;;6.90;5.77;;;23.20;58.40;;;;;;5089602;28;20220;-66
2021/09/03 00:38:53;;;;;;;8.50;5.77;;;23.10;58.40;;;;;;5085448;28;20595;-66
2021/09/03 00:41:23;;;;;;;7.23;6.27;;;23.20;58.50;;;;;;5105601;28;20232;-66
2021/09/03 00:43:52;;;;;;;6.60;5.90;;;23.10;58.40;;;;;;5070683;28;20662;-66
2021/09/03 00:46:22;;;;;;;6.47;5.77;;;23.10;58.40;;;;;;5102611;28;20661;-66
2021/09/03 00:48:54;;;;;;;7.30;5.67;;;23.10;58.40;;;;;;5085299;28;20208;-66
2021/09/03 00:51:24;;;;;;;9.53;6.47;;;23.10;58.40;;;;;;5089914;28;20514;-66
2021/09/03 00:53:55;;;;;;;6.77;6.17;;;23.10;58.40;;;;;;5077599;28;20213;-66
2021/09/03 00:56:27;;;;;;;7.77;6.27;;;23.10;58.40;;;;;;5088462;28;20224;-66
2021/09/03 00:59:02;;;;;;;8.20;6.33;;;23.10;58.40;;;;;;5087998;28;20279;-66
2021/09/03 01:01:33;;;;;;;6.20;5.60;;;23.10;58.40;;;;;;5090929;28;20192;-66
2021/09/03 01:04:02;;;;;;;6.33;5.47;;;23.10;58.40;;;;;;5099697;28;20224;-66
2021/09/03 01:06:33;;;;;;;7.10;6.33;;;23.10;58.40;;;;;;5085717;28;20207;-66
2021/09/03 01:09:03;;;;;;;6.87;6.13;;;23.10;58.40;;;;;;5083978;28;20201;-66
2021/09/03 01:11:35;;;;;;;6.67;5.97;;;23.10;58.40;;;;;;5111052;28;20621;-66
2021/09/03 01:14:05;;;;;;;6.50;5.90;;;23.10;58.40;;;;;;5088175;28;20218;-66
2021/09/03 01:16:36;;;;;;;7.33;5.90;;;23.10;58.40;;;;;;5081541;28;20217;-66
2021/09/03 01:19:07;;;;;;;7.50;6.37;;;23.10;58.40;;;;;;5106051;28;20220;-66
2021/09/03 01:21:36;;;;;;;7.43;6.13;;;23.10;58.40;;;;;;5095450;28;20201;-66
2021/09/03 01:24:07;;;;;;;6.33;5.73;;;23.10;58.40;;;;;;5105246;28;20550;-66
2021/09/03 01:26:38;;;;;;;6.37;5.53;;;23.00;58.40;;;;;;5095460;28;20197;-66
2021/09/03 01:29:08;;;;;;;6.03;5.37;;;23.10;58.40;;;;;;5108509;28;20205;-66
2021/09/03 01:31:41;;;;;;;8.20;6.10;;;23.00;58.30;;;;;;5092856;28;20737;-66
2021/09/03 01:34:12;;;;;;;6.67;5.97;;;23.00;58.30;;;;;;5091703;28;20196;-66
2021/09/03 01:36:52;;;;;;;6.87;6.07;;;23.00;58.30;;;;;;5096754;28;20238;-66
2021/09/03 01:39:20;;;;;;;7.03;6.03;;;23.00;58.40;;;;;;5105823;28;20200;-66
2021/09/03 01:41:51;;;;;;;6.07;5.47;;;23.00;58.40;;;;;;5061778;28;20199;-66
2021/09/03 01:44:19;;;;;;;6.87;6.07;;;23.00;58.40;;;;;;5091332;28;20197;-66
2021/09/03 01:46:50;;;;;;;6.20;5.60;;;23.00;58.40;;;;;;5094630;28;20211;-66
2021/09/03 01:49:20;;;;;;;6.30;5.70;;;23.00;58.40;;;;;;5106406;28;20272;-66
2021/09/03 01:51:48;;;;;;;6.00;5.40;;;23.00;58.40;;;;;;5092478;28;20229;-66
2021/09/03 01:54:24;;;;;;;6.20;5.50;;;23.00;58.40;;;;;;5099054;28;20219;-66
2021/09/03 01:56:56;;;;;;;6.50;5.83;;;23.00;58.40;;;;;;5084890;28;20601;-66
2021/09/03 01:59:27;;;;;;;5.97;5.40;;;23.00;58.40;;;;;;5081416;28;20201;-66
2021/09/03 02:01:58;;;;;;;6.30;5.70;;;23.00;58.40;;;;;;5083081;28;20204;-66
2021/09/03 02:04:27;;;;;;;6.50;5.33;;;23.00;58.40;;;;;;5095518;28;20193;-66
2021/09/03 02:06:58;;;;;;;6.00;5.33;;;23.00;58.30;;;;;;5108857;28;20200;-66
2021/09/03 02:09:29;;;;;;;7.80;5.57;;;23.00;58.30;;;;;;5077572;28;20231;-66
2021/09/03 02:12:01;;;;;;;5.37;4.87;;;23.00;58.30;;;;;;5105568;28;20224;-66
2021/09/03 02:14:33;;;;;;;6.93;5.37;;;22.90;58.20;;;;;;5097612;28;20212;-66
2021/09/03 02:17:05;;;;;;;6.13;5.50;;;22.90;58.20;;;;;;5110720;28;20227;-66
2021/09/03 02:19:38;;;;;;;6.13;5.50;;;23.00;58.30;;;;;;5070461;28;20744;-66
2021/09/03 02:22:07;;;;;;;5.83;5.30;;;22.90;58.30;;;;;;5108570;28;20590;-66
2021/09/03 02:24:39;;;;;;;8.83;5.67;;;22.90;58.20;;;;;;5111567;27;20216;-66
2021/09/03 02:27:10;;;;;;;7.23;6.10;;;22.90;58.30;;;;;;5071708;28;20321;-66
2021/09/03 02:29:42;;;;;;;7.57;6.10;;;22.90;58.30;;;;;;5102333;27;20209;-66
2021/09/03 02:32:16;;;;;;;6.83;6.13;;;22.90;58.30;;;;;;5079593;28;20189;-66
2021/09/03 02:34:48;;;;;;;8.90;6.00;;;22.90;58.30;;;;;;5108134;28;20204;-66
2021/09/03 02:37:18;;;;;;;5.87;5.30;;;22.90;58.20;;;;;;5077079;28;20308;-66
2021/09/03 02:39:52;;;;;;;6.20;5.60;;;22.90;58.20;;;;;;5102763;28;20295;-66
2021/09/03 02:42:23;;;;;;;5.90;5.30;;;22.90;58.20;;;;;;5072233;28;20212;-66
2021/09/03 02:44:54;;;;;;;7.43;5.83;;;22.90;58.10;;;;;;5065204;28;20193;-66
2021/09/03 02:47:29;;;;;;;6.67;5.87;;;22.90;58.20;;;;;;5076245;28;20767;-66
2021/09/03 02:50:00;;;;;;;7.07;5.47;;;22.90;58.30;;;;;;5072666;28;20653;-66
2021/09/03 02:52:30;;;;;;;6.53;5.73;;;22.90;58.20;;;;;;5090909;28;20510;-65
2021/09/03 02:55:08;;;;;;;6.27;5.70;;;22.90;58.20;;;;;;5079251;28;20202;-66
2021/09/03 02:57:38;;;;;;;6.30;5.63;;;22.90;58.20;;;;;;5080888;28;20828;-66
2021/09/03 03:00:11;;;;;;;5.73;5.13;;;22.80;58.10;;;;;;5070238;28;20227;-66
2021/09/03 03:02:48;;;;;;;6.17;5.50;;;22.80;58.10;;;;;;5073564;28;20749;-66
2021/09/03 03:05:23;;;;;;;6.20;5.60;;;22.90;58.20;;;;;;5073475;28;20663;-66
2021/09/03 03:07:56;;;;;;;6.10;5.30;;;22.90;58.20;;;;;;5088938;28;20641;-66
2021/09/03 03:10:26;;;;;;;6.00;5.47;;;22.90;58.10;;;;;;5089604;28;20227;-66
2021/09/03 03:12:58;;;;;;;6.03;5.43;;;22.90;58.20;;;;;;5070513;28;20196;-66
2021/09/03 03:15:28;;;;;;;6.00;5.50;;;22.80;58.10;;;;;;5081878;28;20209;-66
2021/09/03 03:17:59;;;;;;;6.53;5.93;;;22.80;58.10;;;;;;5087666;28;20278;-66
2021/09/03 03:20:27;;;;;;;6.83;5.83;;;22.80;58.10;;;;;;5084571;28;21017;-66
2021/09/03 03:23:13;;;;;;;6.90;6.20;;;22.80;58.10;;;;;;5081291;28;20640;-66
2021/09/03 03:25:44;;;;;;;6.23;5.63;;;22.80;58.10;;;;;;5090398;28;20231;-66
2021/09/03 03:28:13;;;;;;;6.40;5.80;;;22.80;58.10;;;;;;5070590;28;20837;-66
2021/09/03 03:30:46;;;;;;;6.63;6.00;;;22.80;58.10;;;;;;5066617;28;20215;-65
2021/09/03 03:33:19;;;;;;;5.73;5.23;;;22.80;58.10;;;;;;5089290;28;20279;-66
2021/09/03 03:35:49;;;;;;;6.33;5.73;;;22.80;58.10;;;;;;5077470;28;20229;-66
2021/09/03 03:38:21;;;;;;;6.63;5.93;;;22.80;58.10;;;;;;5097505;28;20194;-66
2021/09/03 03:40:55;;;;;;;6.80;5.73;;;22.80;58.10;;;;;;5098951;28;20240;-66
2021/09/03 03:43:25;;;;;;;6.70;6.03;;;22.80;58.10;;;;;;5110374;28;20625;-66
2021/09/03 03:45:56;;;;;;;6.87;6.17;;;22.80;58.10;;;;;;5102511;28;20196;-66
2021/09/03 03:48:32;;;;;;;7.40;6.20;;;22.70;58.00;;;;;;5097447;28;20203;-66
2021/09/03 03:51:04;;;;;;;6.77;5.63;;;22.70;58.00;;;;;;5101976;27;20671;-66
2021/09/03 03:53:33;;;;;;;6.57;5.93;;;22.70;58.20;;;;;;5084034;28;20196;-66
2021/09/03 03:56:04;;;;;;;6.63;5.93;;;22.70;58.00;;;;;;5098276;28;20212;-66
2021/09/03 03:58:35;;;;;;;8.90;6.77;;;22.70;58.00;;;;;;5086086;28;20203;-66
2021/09/03 04:01:06;;;;;;;6.77;6.13;;;22.70;58.00;;;;;;5089431;28;20220;-66
2021/09/03 04:03:38;;;;;;;6.67;6.00;;;22.70;57.90;;;;;;5107343;28;20196;-66
2021/09/03 04:06:10;;;;;;;6.20;5.63;;;22.70;57.90;;;;;;5110525;28;20204;-66
2021/09/03 04:08:41;;;;;;;6.40;5.80;;;22.70;58.00;;;;;;5107045;28;20216;-66
2021/09/03 04:11:12;;;;;;;6.00;5.40;;;22.80;58.00;;;;;;5091571;28;20654;-66
2021/09/03 04:13:43;;;;;;;6.43;5.80;;;22.70;57.90;;;;;;5086322;28;20203;-66
2021/09/03 04:16:15;;;;;;;6.83;5.93;;;22.70;57.90;;;;;;5110561;28;20212;-66
2021/09/03 04:18:46;;;;;;;8.20;6.43;;;22.70;57.90;;;;;;5081404;28;20196;-66
2021/09/03 04:21:14;;;;;;;7.10;5.90;;;22.70;57.80;;;;;;5095236;28;20555;-66
2021/09/03 04:23:44;;;;;;;7.30;6.40;;;22.70;57.80;;;;;;5104761;28;20222;-66
2021/09/03 04:26:13;;;;;;;6.97;6.27;;;22.70;57.80;;;;;;5059891;28;20196;-66
2021/09/03 04:28:43;;;;;;;6.87;6.17;;;22.70;57.70;;;;;;5100411;28;20610;-66
2021/09/03 04:31:27;;;;;;;7.80;6.03;;;22.70;57.70;;;;;;5085254;28;20298;-66
2021/09/03 04:33:57;;;;;;;7.83;6.13;;;22.70;57.70;;;;;;5076685;28;20227;-66
2021/09/03 04:36:26;;;;;;;6.53;5.90;;;22.70;57.70;;;;;;5109998;28;20778;-66
2021/09/03 04:38:55;;;;;;;7.23;6.47;;;22.60;57.70;;;;;;5092953;28;20200;-66
2021/09/03 04:41:27;;;;;;;6.33;5.73;;;22.70;57.70;;;;;;5096062;28;20230;-66
2021/09/03 04:44:00;;;;;;;6.60;6.00;;;22.60;57.60;;;;;;5061488;28;20218;-66
2021/09/03 04:46:29;;;;;;;7.00;6.30;;;22.60;57.60;;;;;;5087276;28;20299;-66
2021/09/03 04:49:01;;;;;;;7.67;6.30;;;22.70;57.60;;;;;;5091776;28;20314;-66
2021/09/03 04:51:31;;;;;;;7.03;5.90;;;22.70;57.60;;;;;;5089253;28;20196;-66
2021/09/03 04:54:02;;;;;;;6.77;6.07;;;22.60;57.60;;;;;;5076770;28;20204;-66
2021/09/03 04:56:33;;;;;;;6.83;6.13;;;22.70;57.60;;;;;;5092408;28;20727;-66
2021/09/03 04:59:05;;;;;;;7.23;6.13;;;22.60;57.50;;;;;;5079120;28;20205;-66
2021/09/03 05:01:38;;;;;;;7.13;6.43;;;22.60;57.50;;;;;;5083966;28;20198;-66
2021/09/03 05:04:05;;;;;;;8.17;6.53;;;22.60;57.50;;;;;;5086241;28;20281;-65
2021/09/03 05:06:39;;;;;;;6.77;5.93;;;22.60;57.40;;;;;;5084979;28;20190;-65
2021/09/03 05:09:11;;;;;;;6.63;6.03;;;22.60;57.50;;;;;;5084763;28;20288;-66
2021/09/03 05:11:43;;;;;;;8.50;6.60;;;22.60;57.40;;;;;;5094827;28;20672;-66
2021/09/03 05:14:11;;;;;;;10.90;6.87;;;22.60;57.40;;;;;;5081655;28;20221;-65
2021/09/03 05:16:42;;;;;;;7.87;7.07;;;22.60;57.40;;;;;;5056085;28;20678;-66
2021/09/03 05:19:14;;;;;;;6.83;6.23;;;22.60;57.40;;;;;;5073597;28;20203;-66
2021/09/03 05:21:46;;;;;;;7.30;6.60;;;22.60;57.40;;;;;;5081800;28;20231;-65
2021/09/03 05:24:18;;;;;;;7.17;6.47;;;22.60;57.30;;;;;;5099937;28;20201;-66
2021/09/03 05:26:52;;;;;;;6.93;6.13;;;22.60;57.30;;;;;;5113363;28;20212;-65
2021/09/03 05:29:24;;;;;;;7.23;6.53;;;22.60;57.30;;;;;;5082326;28;20205;-66
2021/09/03 05:31:55;;;;;;;8.40;6.80;;;22.60;57.30;;;;;;5068717;28;20196;-66
2021/09/03 05:34:27;;;;;;;8.20;7.33;;;22.60;57.30;;;;;;5089585;28;20217;-65
2021/09/03 05:37:01;;;;;;;7.30;6.63;;;22.50;57.20;;;;;;5081740;28;20728;-67
2021/09/03 05:39:34;;;;;;;7.00;6.30;;;22.60;57.20;;;;;;5086127;28;20486;-65
2021/09/03 05:42:04;;;;;;;8.07;6.77;;;22.60;57.20;;;;;;5082278;28;20197;-66
2021/09/03 05:44:36;;;;;;;7.60;6.90;;;22.60;57.20;;;;;;5093249;28;20634;-65
2021/09/03 05:47:07;;;;;;;7.40;6.60;;;22.60;57.20;;;;;;5093624;28;20209;-65
2021/09/03 05:49:38;;;;;;;6.90;6.30;;;22.50;57.10;;;;;;5086304;28;20291;-66
2021/09/03 05:52:09;;;;;;;9.90;6.80;;;22.60;57.20;;;;;;5080761;28;20541;-65
2021/09/03 05:54:37;;;;;;;7.63;6.47;;;22.50;57.10;;;;;;5056903;28;20652;-65
2021/09/03 05:57:07;;;;;;;7.47;6.60;;;22.50;57.10;;;;;;5093338;28;20225;-66
2021/09/03 05:59:36;;;;;;;8.60;6.60;;;22.50;57.20;;;;;;5091460;28;20209;-65
2021/09/03 06:02:04;;;;;;;8.10;6.77;;;22.50;57.20;;;;;;5065942;28;20227;-66
2021/09/03 06:04:38;;;;;;;7.90;6.97;;;22.50;57.20;;;;;;5079639;28;20186;-66
2021/09/03 06:07:08;;;;;;;8.17;6.60;;;22.50;57.10;;;;;;5055177;28;20244;-66
2021/09/03 06:09:41;;;;;;;6.47;5.87;;;22.50;57.20;;;;;;5074424;28;20209;-66
2021/09/03 06:12:11;;;;;;;7.47;6.53;;;22.50;57.20;;;;;;5068987;28;20232;-66
2021/09/03 06:14:42;;;;;;;7.57;6.30;;;22.50;57.20;;;;;;5076943;28;20217;-66
2021/09/03 06:17:12;;;;;;;7.00;6.30;;;22.50;57.20;;;;;;5080316;28;20758;-66
2021/09/03 06:19:43;;;;;;;7.73;6.90;;;22.50;57.20;;;;;;5063732;28;20197;-66
2021/09/03 06:22:13;;;;;;;8.53;6.60;;;22.50;57.20;;;;;;5060775;28;20212;-65
2021/09/03 06:24:49;;;;;;;6.83;6.23;;;22.50;57.20;;;;;;5089181;28;20205;-66
2021/09/03 06:27:21;;;;;;;7.47;6.67;;;22.50;57.30;;;;;;5072530;28;20207;-66
2021/09/03 06:29:53;;;;;;;8.23;6.70;;;22.50;57.30;;;;;;5089037;28;20204;-67
2021/09/03 06:32:25;;;;;;;11.40;6.37;;;22.50;57.40;;;;;;5067132;28;20201;-65
2021/09/03 06:35:00;;;;;;;27.30;11.70;;;22.50;57.70;;;;;;5061632;28;20205;-66
2021/09/03 06:37:33;;;;;;;28.20;11.37;;;22.50;58.40;;;;;;5073841;28;20237;-66
2021/09/03 06:40:04;;;;;;;27.70;11.37;;;22.50;58.20;;;;;;5052536;28;20254;-66
2021/09/03 06:42:33;;;;;;;25.73;11.63;;;22.50;58.10;;;;;;5055408;28;20284;-65
2021/09/03 06:45:04;;;;;;;30.40;11.60;;;22.50;58.10;;;;;;5072734;28;20543;-66
2021/09/03 06:47:36;;;;;;;24.10;10.37;;;22.50;58.40;;;;;;5070173;28;20685;-65
2021/09/03 06:50:10;;;;;;;18.50;9.43;;;22.50;58.60;;;;;;5072668;28;20656;-64
2021/09/03 06:52:41;;;;;;;17.57;10.83;;;22.50;58.60;;;;;;5090046;28;20201;-65
2021/09/03 06:55:15;;;;;;;16.63;10.20;;;22.50;58.60;;;;;;5081247;28;20235;-65
2021/09/03 06:57:49;;;;;;;17.37;10.70;;;22.50;58.60;;;;;;5082571;28;20229;-66
2021/09/03 07:00:23;;;;;;;18.58;10.77;;;22.50;58.40;;;;;;5072998;28;20430;-66
2021/09/03 07:02:54;;;;;;;14.63;9.37;;;22.60;58.40;;;;;;5083971;28;20603;-66
2021/09/03 07:05:25;;;;;;;11.37;9.00;;;22.60;58.60;;;;;;5085683;28;20198;-66
2021/09/03 07:07:52;;;;;;;12.83;8.17;;;22.60;58.60;;;;;;5086701;28;20211;-65
2021/09/03 07:10:23;;;;;;;11.10;8.13;;;22.60;58.60;;;;;;5091858;28;20297;-66
2021/09/03 07:12:54;;;;;;;13.60;8.27;;;22.70;58.60;;;;;;5068184;28;20211;-67
2021/09/03 07:15:24;;;;;;;8.80;7.83;;;22.70;59.30;;;;;;5087369;28;20508;-69
2021/09/03 07:17:54;;;;;;;9.50;7.37;;;22.80;58.70;;;;;;5088405;28;20216;-68
2021/09/03 07:20:26;;;;;;;8.70;7.50;;;22.80;58.50;;;;;;5061031;28;20232;-70
2021/09/03 07:22:55;;;;;;;10.87;7.63;;;22.90;58.50;;;;;;5085360;28;20204;-70
2021/09/03 07:25:27;;;;;;;8.67;7.20;;;22.80;58.40;;;;;;5090274;28;20201;-67
2021/09/03 07:27:57;;;;;;;8.60;7.10;;;22.90;58.30;;;;;;5083260;28;20596;-66
2021/09/03 07:30:26;;;;;;;7.23;6.50;;;22.90;58.50;;;;;;5068805;28;20244;-68
2021/09/03 07:32:56;;;;;;;9.20;7.70;;;22.90;58.50;;;;;;5085855;28;20276;-66
2021/09/03 07:35:27;;;;;;;8.53;6.77;;;23.00;58.30;;;;;;5085346;28;20201;-67
2021/09/03 07:37:57;;;;;;;7.63;6.90;;;23.00;58.10;;;;;;5069882;28;20746;-68
2021/09/03 07:40:32;;;;;;;7.33;6.60;;;23.10;58.10;;;;;;5074353;28;20244;-66
2021/09/03 07:43:07;;;;;;;8.07;7.27;;;23.10;58.00;;;;;;5102256;28;20241;-65
2021/09/03 07:45:43;;;;;;;8.70;7.40;;;23.10;57.90;;;;;;5095415;28;20284;-67
2021/09/03 07:48:14;;;;;;;10.43;7.77;;;23.20;57.90;;;;;;5082352;28;20657;-66
2021/09/03 07:50:44;;;;;;;7.90;7.03;;;23.20;57.80;;;;;;5101374;28;20188;-65
2021/09/03 07:53:17;;;;;;;8.27;7.33;;;23.20;57.70;;;;;;5099363;28;20551;-65
2021/09/03 07:55:50;;;;;;;7.37;6.63;;;23.20;57.70;;;;;;5087349;28;20204;-67
2021/09/03 07:58:20;;;;;;;9.17;7.00;;;23.30;57.70;;;;;;5074776;28;20209;-67
2021/09/03 08:00:51;;;;;;;8.73;7.20;;;23.30;57.70;;;;;;5102168;28;20245;-66
2021/09/03 08:03:22;;;;;;;8.20;7.13;;;23.30;57.60;;;;;;5091773;28;20281;-67
2021/09/03 08:05:52;;;;;;;8.17;7.23;;;23.30;57.50;;;;;;5105833;28;20223;-66
2021/09/03 08:08:25;;;;;;;7.40;6.70;;;23.40;57.40;;;;;;5092954;28;20208;-66
2021/09/03 08:10:55;;;;;;;9.60;7.50;;;23.40;57.30;;;;;;5073841;28;20235;-66
2021/09/03 08:13:25;;;;;;;9.23;7.60;;;23.40;57.20;;;;;;5100895;28;20196;-65
2021/09/03 08:15:54;;;;;;;8.67;7.77;;;23.40;57.20;;;;;;5101891;28;20205;-66
2021/09/03 08:18:23;;;;;;;9.37;7.93;;;23.50;57.20;;;;;;5098276;28;20255;-66
2021/09/03 08:20:55;;;;;;;11.43;7.97;;;23.50;57.30;;;;;;5086292;28;20200;-65
2021/09/03 08:23:23;;;;;;;9.23;8.30;;;23.50;57.30;;;;;;5096879;28;20751;-71
2021/09/03 08:25:52;;;;;;;10.33;8.60;;;23.50;57.20;;;;;;5098777;28;20199;-63
2021/09/03 08:28:22;;;;;;;12.10;11.00;;;23.50;57.10;;;;;;5100265;28;20208;-63
2021/09/03 08:30:53;;;;;;;16.47;12.97;;;23.50;56.70;;;;;;5086105;28;20207;-63
2021/09/03 08:33:24;;;;;;;14.43;13.03;;;23.50;57.30;;;;;;5099860;28;20197;-62
2021/09/03 08:35:58;;;;;;;18.33;14.23;;;23.40;58.60;;;;;;5103948;28;20637;-63
2021/09/03 08:38:28;;;;;;;17.17;14.17;;;23.40;59.30;;;;;;5109363;28;20272;-63
2021/09/03 08:41:02;;;;;;;23.23;14.57;;;23.40;59.80;;;;;;5101434;28;20228;-67
2021/09/03 08:43:32;;;;;;;14.93;13.47;;;23.30;59.50;;;;;;5086211;28;20192;-65
2021/09/03 08:46:16;;;;;;;17.83;14.07;;;23.40;59.90;;;;;;5086386;28;20820;-64
2021/09/03 08:48:47;;;;;;;18.33;13.90;;;23.30;60.00;;;;;;5107389;28;20216;-63
2021/09/03 08:51:18;;;;;;;15.40;13.57;;;23.40;60.20;;;;;;5100318;28;20712;-64
2021/09/03 08:53:48;;;;;;;13.90;12.50;;;23.40;60.20;;;;;;5089987;28;20669;-65
2021/09/03 08:56:22;;;;;;;19.30;12.53;;;23.40;60.20;;;;;;5101612;28;20228;-64
2021/09/03 08:59:04;;;;;;;14.90;13.17;;;23.40;60.40;;;;;;5107140;28;20219;-66
2021/09/03 09:01:35;;;;;;;15.10;12.53;;;23.40;60.20;;;;;;5107248;28;20232;-64
2021/09/03 09:04:13;;;;;;;16.57;12.73;;;23.50;60.40;;;;;;5106713;28;20220;-66
2021/09/03 09:07:02;;;;;;;16.00;13.17;;;23.50;60.40;;;;;;5099444;28;20558;-66
2021/09/03 09:09:47;;;;;;;15.07;12.50;;;23.60;60.30;;;;;;5104396;28;20698;-67
2021/09/03 09:12:19;;;;;;;13.57;11.93;;;23.50;60.10;;;;;;5102456;28;20200;-66
2021/09/03 09:15:10;;;;;;;14.40;12.67;;;23.50;60.20;;;;;;5089566;28;20261;-67
2021/09/03 09:17:46;;;;;;;14.57;12.77;;;23.60;60.20;;;;;;5094940;28;20216;-67
2021/09/03 09:20:17;;;;;;;15.83;13.30;;;23.50;60.20;;;;;;5107744;28;20216;-65
2021/09/03 09:23:03;;;;;;;13.57;12.27;;;23.60;60.30;;;;;;5108938;28;20244;-65
2021/09/03 09:25:36;;;;;;;16.13;13.10;;;23.60;60.90;;;;;;5106220;28;20189;-65
2021/09/03 09:28:30;;;;;;;16.77;12.80;;;23.60;60.10;;;;;;5093916;28;20204;-65
2021/09/03 09:30:58;;;;;;;14.20;12.80;;;23.60;60.20;;;;;;5100733;28;20207;-65
2021/09/03 09:33:28;;;;;;;14.73;13.20;;;23.70;60.30;;;;;;5110492;27;20206;-64
2021/09/03 09:36:07;;;;;;;13.57;11.50;;;23.70;60.30;;;;;;5090391;28;20217;-63
2021/09/03 09:38:37;;;;;;;12.63;11.40;;;23.70;60.10;;;;;;5111097;28;20220;-65
2021/09/03 09:41:12;;;;;;;15.57;13.10;;;23.70;60.30;;;;;;5124240;27;20240;-65
2021/09/03 09:43:46;;;;;;;15.07;13.57;;;23.70;60.10;;;;;;5089496;28;20212;-65
2021/09/03 09:46:28;;;;;;;14.67;13.23;;;23.80;60.00;;;;;;5092087;28;20701;-67
2021/09/03 09:49:09;;;;;;;13.43;12.13;;;23.80;60.00;;;;;;5111554;28;20269;-66
2021/09/03 09:51:44;;;;;;;16.07;14.57;;;23.80;60.10;;;;;;5081285;28;20281;-66
2021/09/03 09:54:26;;;;;;;14.97;13.47;;;23.80;60.00;;;;;;5105246;28;20228;-66
2021/09/03 09:57:03;;;;;;;14.87;13.47;;;23.80;59.70;;;;;;5096562;28;20195;-66
2021/09/03 09:59:36;;;;;;;13.53;12.23;;;23.80;59.90;;;;;;5105831;28;20199;-66
2021/09/03 10:02:08;;;;;;;15.97;14.47;;;23.90;60.00;;;;;;5097057;28;20246;-66
2021/09/03 10:04:40;;;;;;;13.77;12.17;;;23.90;59.70;;;;;;5108488;27;20184;-67
2021/09/03 10:07:11;;;;;;;12.43;11.13;;;23.90;59.80;;;;;;5110295;28;20258;-65
2021/09/03 10:09:43;;;;;;;12.03;10.73;;;23.90;59.90;;;;;;5072030;28;20196;-65
2021/09/03 10:12:12;;;;;;;12.20;10.90;;;23.90;61.40;;;;;;5108041;28;20289;-64
2021/09/03 10:14:43;;;;;;;16.87;12.93;;;23.90;61.40;;;;;;5100452;28;20196;-65
2021/09/03 10:17:13;;;;;;;14.70;13.20;;;23.80;60.40;;;;;;5085601;28;20278;-63
2021/09/03 10:19:52;;;;;;;15.87;14.33;;;23.90;60.30;;;;;;5101071;28;20652;-63
2021/09/03 10:22:46;;;;;;;16.77;14.63;;;23.80;59.50;;;;;;5106254;28;20208;-65
2021/09/03 10:25:16;;;;;;;16.17;14.57;;;23.80;59.70;;;;;;5073881;28;20734;-63
2021/09/03 10:28:09;;;;;;;16.10;13.87;;;23.80;59.20;;;;;;5087869;28;20312;-65
2021/09/03 10:31:06;;;;;;;14.17;12.50;;;23.90;59.60;;;;;;5091742;28;20723;-65
2021/09/03 10:33:37;;;;;;;13.03;11.77;;;23.80;60.00;;;;;;5080153;28;20195;-65
2021/09/03 10:36:05;;;;;;;15.70;13.53;;;23.80;60.10;;;;;;5079022;28;20216;-65
2021/09/03 10:38:34;;;;;;;12.90;11.60;;;23.80;59.10;;;;;;5105312;28;20219;-67
2021/09/03 10:41:04;;;;;;;13.93;11.73;;;23.80;59.40;;;;;;5088487;28;20240;-66
2021/09/03 10:43:55;;;;;;;12.73;11.43;;;23.90;59.60;;;;;;5106521;28;20188;-66
2021/09/03 10:46:47;;;;;;;13.10;10.87;;;23.90;59.20;;;;;;5107382;28;20204;-69
2021/09/03 10:49:26;;;;;;;12.30;9.87;;;24.00;59.20;;;;;;5097962;28;20196;-65
2021/09/03 10:52:12;;;;;;;10.00;9.00;;;24.00;59.40;;;;;;5088383;28;20197;-65
2021/09/03 10:54:49;;;;;;;12.97;9.47;;;24.00;59.40;;;;;;5069745;28;20213;-67
2021/09/03 10:57:24;;;;;;;10.70;9.07;;;24.10;59.40;;;;;;5088847;28;20218;-66
2021/09/03 11:00:22;;;;;;;11.83;9.43;;;24.10;59.50;;;;;;5098200;28;20631;-70
2021/09/03 11:02:56;;;;;;;10.97;9.87;;;24.10;59.50;;;;;;5082411;28;20205;-69
2021/09/03 11:05:25;;;;;;;10.37;9.27;;;24.20;59.30;;;;;;5100341;28;20200;-68
2021/09/03 11:07:59;;;;;;;11.63;9.67;;;24.20;59.40;;;;;;5098050;28;20276;-66
2021/09/03 11:10:29;;;;;;;10.50;9.50;;;24.30;59.20;;;;;;5098668;28;20201;-65
2021/09/03 11:13:01;;;;;;;12.00;8.90;;;24.30;58.80;;;;;;5080804;28;20257;-66
2021/09/03 11:15:32;;;;;;;11.70;10.50;;;24.30;58.80;;;;;;5101303;28;20203;-66
2021/09/03 11:18:10;;;;;;;10.00;8.97;;;24.30;58.50;;;;;;5090231;28;20220;-66
2021/09/03 11:20:55;;;;;;;11.30;9.77;;;24.30;58.30;;;;;;5098684;28;20467;-65
2021/09/03 11:23:38;;;;;;;11.43;9.30;;;24.40;58.30;;;;;;5106577;28;20203;-66
2021/09/03 11:26:17;;;;;;;10.23;9.23;;;24.40;58.00;;;;;;5101641;28;20209;-66
2021/09/03 11:28:48;;;;;;;12.53;8.40;;;24.40;58.10;;;;;;5105641;28;20192;-66
2021/09/03 11:31:20;;;;;;;10.00;8.87;;;24.40;58.10;;;;;;5100218;28;20200;-65
2021/09/03 11:33:51;;;;;;;10.53;8.43;;;24.50;57.80;;;;;;5107011;28;20200;-66
2021/09/03 11:36:18;;;;;;;8.93;8.03;;;24.50;57.60;;;;;;5089425;28;20204;-67
2021/09/03 11:38:59;;;;;;;8.60;7.60;;;24.50;57.80;;;;;;5085388;28;20227;-68
2021/09/03 11:41:31;;;;;;;10.53;7.83;;;24.60;58.40;;;;;;5086959;28;20219;-66
2021/09/03 11:44:11;;;;;;;9.53;7.00;;;24.60;58.60;;;;;;5099884;28;20203;-66
2021/09/03 11:46:44;;;;;;;9.83;7.50;;;24.60;58.60;;;;;;5097885;28;20196;-66
2021/09/03 11:49:21;;;;;;;7.80;7.10;;;24.60;58.60;;;;;;5085371;28;20279;-68
2021/09/03 11:52:08;;;;;;;10.60;7.43;;;24.70;58.50;;;;;;5081500;28;20212;-67
2021/09/03 11:54:51;;;;;;;10.80;7.80;;;24.70;58.70;;;;;;5098266;28;20253;-66
2021/09/03 11:57:20;;;;;;;9.00;7.87;;;24.70;58.80;;;;;;5102165;28;20215;-67
2021/09/03 12:00:00;;;;;;;10.73;8.40;;;24.80;58.70;;;;;;5079028;28;20230;-67
2021/09/03 12:02:32;;;;;;;9.90;8.00;;;24.80;58.30;;;;;;5084233;28;20730;-66
2021/09/03 12:05:04;;;;;;;10.40;8.40;;;24.80;58.50;;;;;;5100903;28;20235;-69
2021/09/03 12:07:36;;;;;;;8.10;7.30;;;24.90;58.90;;;;;;5097160;28;20193;-68
2021/09/03 12:10:29;;;;;;;10.67;8.73;;;24.90;59.20;;;;;;5079451;28;20212;-66
2021/09/03 12:13:19;;;;;;;11.23;8.53;;;24.90;58.90;;;;;;5100064;28;20224;-67
2021/09/03 12:16:08;;;;;;;9.97;8.93;;;25.00;58.80;;;;;;5085666;28;20211;-65
2021/09/03 12:18:48;;;;;;;9.90;8.90;;;25.00;58.10;;;;;;5099691;28;20251;-66
2021/09/03 12:21:33;;;;;;;11.77;8.93;;;25.00;57.80;;;;;;5103591;28;20196;-66
2021/09/03 12:24:11;;;;;;;9.70;8.70;;;25.00;57.20;;;;;;5083908;28;20264;-67
2021/09/03 12:26:56;;;;;;;11.53;8.53;;;25.00;57.10;;;;;;5104825;28;20188;-68
2021/09/03 12:29:31;;;;;;;12.33;7.90;;;25.10;57.20;;;;;;5095552;28;20204;-67
2021/09/03 12:32:01;;;;;;;10.60;8.67;;;25.10;57.40;;;;;;5105568;28;20208;-68
2021/09/03 12:34:45;;;;;;;11.43;8.20;;;25.20;57.30;;;;;;5083646;28;20300;-67
2021/09/03 12:37:16;;;;;;;12.00;8.57;;;25.20;57.20;;;;;;5105892;28;20200;-67
2021/09/03 12:39:45;;;;;;;8.90;7.53;;;25.20;57.10;;;;;;5078891;28;20208;-67
2021/09/03 12:42:17;;;;;;;9.97;7.60;;;25.30;57.50;;;;;;5083836;28;20285;-67
2021/09/03 12:44:47;;;;;;;9.23;7.30;;;25.30;57.70;;;;;;5099849;28;20193;-68
2021/09/03 12:47:19;;;;;;;9.40;8.03;;;25.40;57.40;;;;;;5095992;28;20200;-67
2021/09/03 12:49:49;;;;;;;8.90;8.00;;;25.40;57.70;;;;;;5114895;28;20315;-67
2021/09/03 12:52:19;;;;;;;9.50;8.30;;;25.40;56.80;;;;;;5101918;28;20215;-67
2021/09/03 12:54:53;;;;;;;9.07;8.10;;;25.40;56.10;;;;;;5102627;28;20280;-67
2021/09/03 12:57:26;;;;;;;13.87;7.80;;;25.40;55.80;;;;;;5106420;28;20219;-67
2021/09/03 13:00:01;;;;;;;9.40;7.60;;;25.40;56.00;;;;;;5106119;28;20235;-67
2021/09/03 13:02:29;;;;;;;8.23;7.43;;;25.40;55.60;;;;;;5101575;28;20630;-66
2021/09/03 13:05:00;;;;;;;8.73;7.00;;;25.40;55.90;;;;;;5100733;28;20276;-67
2021/09/03 13:07:30;;;;;;;7.50;6.80;;;25.40;56.50;;;;;;5102113;28;20734;-67
2021/09/03 13:09:58;;;;;;;8.47;7.07;;;25.50;56.10;;;;;;5085198;28;20200;-67